sensor_id;sensor_type;location;lat;lon;timestamp;pressure;altitude;pressure_sealevel;temperature;humidity
54369;BME280;40266;52.434;17.056;2023-03-20T00:01:29;100602.77;;;2.55;83.58
54369;BME280;40266;52.434;17.056;2023-03-20T00:04:12;100604.29;;;2.52;83.55
54369;BME280;40266;52.434;17.056;2023-03-20T00:06:56;100604.77;;;2.49;83.54
54369;BME280;40266;52.434;17.056;2023-03-20T00:09:39;100603.20;;;2.47;83.48
54369;BME280;40266;52.434;17.056;2023-03-20T00:12:23;100600.73;;;2.45;83.61
54369;BME280;40266;52.434;17.056;2023-03-20T00:15:35;100601.04;;;2.42;83.61
54369;BME280;40266;52.434;17.056;2023-03-20T00:18:21;100599.95;;;2.39;84.13
54369;BME280;40266;52.434;17.056;2023-03-20T00:21:16;100601.32;;;2.38;84.23
54369;BME280;40266;52.434;17.056;2023-03-20T00:23:59;100602.33;;;2.36;84.22
54369;BME280;40266;52.434;17.056;2023-03-20T00:26:45;100604.55;;;2.35;84.14
54369;BME280;40266;52.434;17.056;2023-03-20T00:29:30;100606.42;;;2.34;84.32
54369;BME280;40266;52.434;17.056;2023-03-20T00:32:14;100604.50;;;2.31;84.39
54369;BME280;40266;52.434;17.056;2023-03-20T00:34:57;100604.14;;;2.30;84.54
54369;BME280;40266;52.434;17.056;2023-03-20T00:37:40;100604.09;;;2.27;84.77
54369;BME280;40266;52.434;17.056;2023-03-20T00:40:30;100599.77;;;2.25;84.88
54369;BME280;40266;52.434;17.056;2023-03-20T00:43:23;100598.33;;;2.22;85.03
54369;BME280;40266;52.434;17.056;2023-03-20T00:46:12;100592.61;;;2.19;84.90
54369;BME280;40266;52.434;17.056;2023-03-20T00:48:56;100589.98;;;2.17;84.82
54369;BME280;40266;52.434;17.056;2023-03-20T00:51:40;100590.63;;;2.14;84.83
54369;BME280;40266;52.434;17.056;2023-03-20T00:54:25;100591.09;;;2.11;84.81
54369;BME280;40266;52.434;17.056;2023-03-20T00:57:29;100589.67;;;2.08;84.75
54369;BME280;40266;52.434;17.056;2023-03-20T01:00:43;100591.16;;;2.05;84.92
54369;BME280;40266;52.434;17.056;2023-03-20T01:03:30;100589.92;;;2.02;84.98
54369;BME280;40266;52.434;17.056;2023-03-20T01:06:14;100586.44;;;1.99;84.97
54369;BME280;40266;52.434;17.056;2023-03-20T01:08:57;100580.17;;;1.96;85.18
54369;BME280;40266;52.434;17.056;2023-03-20T01:11:41;100576.30;;;1.91;85.04
54369;BME280;40266;52.434;17.056;2023-03-20T01:14:26;100572.98;;;1.87;85.18
54369;BME280;40266;52.434;17.056;2023-03-20T01:17:18;100577.38;;;1.83;85.33
54369;BME280;40266;52.434;17.056;2023-03-20T01:20:01;100580.26;;;1.79;85.23
54369;BME280;40266;52.434;17.056;2023-03-20T01:22:44;100579.00;;;1.77;85.25
54369;BME280;40266;52.434;17.056;2023-03-20T01:25:27;100579.67;;;1.75;85.34
54369;BME280;40266;52.434;17.056;2023-03-20T01:28:20;100582.90;;;1.73;85.45
54369;BME280;40266;52.434;17.056;2023-03-20T01:31:11;100583.38;;;1.71;85.73
54369;BME280;40266;52.434;17.056;2023-03-20T01:33:55;100580.77;;;1.69;85.84
54369;BME280;40266;52.434;17.056;2023-03-20T01:36:47;100580.36;;;1.66;85.79
54369;BME280;40266;52.434;17.056;2023-03-20T01:39:33;100576.89;;;1.64;85.95
54369;BME280;40266;52.434;17.056;2023-03-20T01:42:18;100576.02;;;1.63;86.06
54369;BME280;40266;52.434;17.056;2023-03-20T01:45:12;100570.98;;;1.60;86.06
54369;BME280;40266;52.434;17.056;2023-03-20T01:47:58;100568.02;;;1.59;86.21
54369;BME280;40266;52.434;17.056;2023-03-20T01:50:41;100566.48;;;1.59;86.32
54369;BME280;40266;52.434;17.056;2023-03-20T01:53:34;100565.12;;;1.60;86.45
54369;BME280;40266;52.434;17.056;2023-03-20T01:56:19;100569.61;;;1.61;86.53
54369;BME280;40266;52.434;17.056;2023-03-20T01:59:35;100575.01;;;1.64;86.71
54369;BME280;40266;52.434;17.056;2023-03-20T02:02:22;100573.67;;;1.67;87.16
54369;BME280;40266;52.434;17.056;2023-03-20T02:05:10;100570.81;;;1.72;87.42
54369;BME280;40266;52.434;17.056;2023-03-20T02:08:08;100567.94;;;1.75;87.69
54369;BME280;40266;52.434;17.056;2023-03-20T02:10:56;100565.43;;;1.79;87.93
54369;BME280;40266;52.434;17.056;2023-03-20T02:13:43;100562.05;;;1.82;88.04
54369;BME280;40266;52.434;17.056;2023-03-20T02:16:27;100560.91;;;1.87;88.15
54369;BME280;40266;52.434;17.056;2023-03-20T02:19:25;100564.43;;;1.92;88.08
54369;BME280;40266;52.434;17.056;2023-03-20T02:31:41;100555.47;;;2.14;89.05
54369;BME280;40266;52.434;17.056;2023-03-20T02:46:59;100565.90;;;2.44;89.56
54369;BME280;40266;52.434;17.056;2023-03-20T03:01:38;100558.86;;;2.71;90.19
54369;BME280;40266;52.434;17.056;2023-03-20T03:04:27;100557.89;;;2.77;90.32
54369;BME280;40266;52.434;17.056;2023-03-20T03:07:14;100556.07;;;2.83;90.34
54369;BME280;40266;52.434;17.056;2023-03-20T03:10:10;100558.36;;;2.88;90.42
54369;BME280;40266;52.434;17.056;2023-03-20T03:12:55;100553.77;;;2.92;90.54
54369;BME280;40266;52.434;17.056;2023-03-20T03:15:44;100553.83;;;2.98;90.59
54369;BME280;40266;52.434;17.056;2023-03-20T03:18:29;100546.83;;;3.04;90.86
54369;BME280;40266;52.434;17.056;2023-03-20T03:21:15;100544.63;;;3.09;90.71
54369;BME280;40266;52.434;17.056;2023-03-20T03:23:59;100552.65;;;3.15;91.08
54369;BME280;40266;52.434;17.056;2023-03-20T03:26:43;100551.13;;;3.20;91.08
54369;BME280;40266;52.434;17.056;2023-03-20T03:29:30;100553.62;;;3.26;90.95
54369;BME280;40266;52.434;17.056;2023-03-20T03:32:26;100549.54;;;3.31;91.28
54369;BME280;40266;52.434;17.056;2023-03-20T03:35:19;100546.83;;;3.37;91.45
54369;BME280;40266;52.434;17.056;2023-03-20T03:46:56;100545.35;;;3.64;92.73
54369;BME280;40266;52.434;17.056;2023-03-20T03:49:45;100546.07;;;3.67;92.81
54369;BME280;40266;52.434;17.056;2023-03-20T03:52:31;100547.33;;;3.74;92.97
54369;BME280;40266;52.434;17.056;2023-03-20T03:55:25;100546.17;;;3.80;93.01
54369;BME280;40266;52.434;17.056;2023-03-20T04:01:13;100538.83;;;3.90;93.46
54369;BME280;40266;52.434;17.056;2023-03-20T04:03:59;100539.20;;;3.95;93.47
54369;BME280;40266;52.434;17.056;2023-03-20T04:06:46;100535.09;;;3.99;93.46
54369;BME280;40266;52.434;17.056;2023-03-20T04:09:29;100530.80;;;4.03;93.39
54369;BME280;40266;52.434;17.056;2023-03-20T04:12:38;100533.08;;;4.08;93.50
54369;BME280;40266;52.434;17.056;2023-03-20T04:15:24;100534.14;;;4.12;93.65
54369;BME280;40266;52.434;17.056;2023-03-20T04:18:14;100534.52;;;4.16;93.63
54369;BME280;40266;52.434;17.056;2023-03-20T04:21:02;100530.57;;;4.20;93.49
54369;BME280;40266;52.434;17.056;2023-03-20T04:23:46;100532.15;;;4.24;93.27
54369;BME280;40266;52.434;17.056;2023-03-20T04:26:29;100531.84;;;4.28;93.48
54369;BME280;40266;52.434;17.056;2023-03-20T04:29:13;100539.45;;;4.31;93.65
54369;BME280;40266;52.434;17.056;2023-03-20T04:32:12;100534.81;;;4.35;93.99
54369;BME280;40266;52.434;17.056;2023-03-20T04:35:22;100531.70;;;4.38;94.09
54369;BME280;40266;52.434;17.056;2023-03-20T04:38:12;100536.92;;;4.41;93.88
54369;BME280;40266;52.434;17.056;2023-03-20T04:40:55;100533.98;;;4.43;93.87
54369;BME280;40266;52.434;17.056;2023-03-20T04:43:39;100536.07;;;4.47;94.19
54369;BME280;40266;52.434;17.056;2023-03-20T04:46:23;100535.91;;;4.49;93.98
54369;BME280;40266;52.434;17.056;2023-03-20T04:49:07;100541.64;;;4.50;94.11
54369;BME280;40266;52.434;17.056;2023-03-20T04:51:50;100540.77;;;4.52;94.15
54369;BME280;40266;52.434;17.056;2023-03-20T04:54:44;100539.73;;;4.53;93.94
54369;BME280;40266;52.434;17.056;2023-03-20T04:57:27;100541.31;;;4.54;93.97
54369;BME280;40266;52.434;17.056;2023-03-20T05:00:11;100544.08;;;4.55;93.79
54369;BME280;40266;52.434;17.056;2023-03-20T05:02:54;100544.08;;;4.55;94.03
54369;BME280;40266;52.434;17.056;2023-03-20T05:05:38;100547.55;;;4.55;94.17
54369;BME280;40266;52.434;17.056;2023-03-20T05:08:21;100547.55;;;4.55;94.13
54369;BME280;40266;52.434;17.056;2023-03-20T05:11:08;100550.14;;;4.55;94.10
54369;BME280;40266;52.434;17.056;2023-03-20T05:14:10;100551.85;;;4.56;93.94
54369;BME280;40266;52.434;17.056;2023-03-20T05:17:32;100548.23;;;4.56;94.27
54369;BME280;40266;52.434;17.056;2023-03-20T05:20:40;100550.32;;;4.58;94.32
54369;BME280;40266;52.434;17.056;2023-03-20T05:23:44;100548.95;;;4.59;94.59
54369;BME280;40266;52.434;17.056;2023-03-20T05:26:47;100547.73;;;4.62;94.76
54369;BME280;40266;52.434;17.056;2023-03-20T05:29:42;100555.89;;;4.64;94.69
54369;BME280;40266;52.434;17.056;2023-03-20T05:32:58;100556.42;;;4.66;94.62
54369;BME280;40266;52.434;17.056;2023-03-20T05:35:41;100561.94;;;4.67;94.54
54369;BME280;40266;52.434;17.056;2023-03-20T05:38:44;100562.84;;;4.70;95.11
54369;BME280;40266;52.434;17.056;2023-03-20T05:41:40;100558.52;;;4.73;95.36
54369;BME280;40266;52.434;17.056;2023-03-20T05:44:26;100560.95;;;4.76;95.20
54369;BME280;40266;52.434;17.056;2023-03-20T05:47:33;100560.44;;;4.79;95.23
54369;BME280;40266;52.434;17.056;2023-03-20T05:50:37;100560.30;;;4.83;95.38
54369;BME280;40266;52.434;17.056;2023-03-20T05:53:35;100560.31;;;4.87;95.52
54369;BME280;40266;52.434;17.056;2023-03-20T05:56:29;100566.05;;;4.91;95.44
54369;BME280;40266;52.434;17.056;2023-03-20T05:59:35;100567.27;;;4.95;95.55
54369;BME280;40266;52.434;17.056;2023-03-20T06:02:57;100566.23;;;4.99;95.87
54369;BME280;40266;52.434;17.056;2023-03-20T06:05:55;100565.73;;;5.03;95.99
54369;BME280;40266;52.434;17.056;2023-03-20T06:08:38;100570.94;;;5.06;95.68
54369;BME280;40266;52.434;17.056;2023-03-20T06:11:23;100568.17;;;5.10;95.93
54369;BME280;40266;52.434;17.056;2023-03-20T06:14:06;100570.79;;;5.15;96.09
54369;BME280;40266;52.434;17.056;2023-03-20T06:16:53;100572.52;;;5.18;96.13
54369;BME280;40266;52.434;17.056;2023-03-20T06:19:36;100572.89;;;5.22;95.95
54369;BME280;40266;52.434;17.056;2023-03-20T06:22:21;100576.89;;;5.26;96.02
54369;BME280;40266;52.434;17.056;2023-03-20T06:25:05;100573.60;;;5.30;96.22
54369;BME280;40266;52.434;17.056;2023-03-20T06:27:52;100577.08;;;5.35;96.51
54369;BME280;40266;52.434;17.056;2023-03-20T06:30:36;100571.90;;;5.37;96.46
54369;BME280;40266;52.434;17.056;2023-03-20T06:33:20;100576.75;;;5.42;96.50
54369;BME280;40266;52.434;17.056;2023-03-20T06:36:11;100580.58;;;5.46;96.64
54369;BME280;40266;52.434;17.056;2023-03-20T06:38:55;100584.21;;;5.50;96.69
54369;BME280;40266;52.434;17.056;2023-03-20T06:41:39;100586.66;;;5.54;96.85
54369;BME280;40266;52.434;17.056;2023-03-20T06:44:24;100583.36;;;5.58;96.97
54369;BME280;40266;52.434;17.056;2023-03-20T06:47:44;100585.97;;;5.64;97.16
54369;BME280;40266;52.434;17.056;2023-03-20T06:50:29;100578.54;;;5.71;97.07
54369;BME280;40266;52.434;17.056;2023-03-20T06:53:13;100580.09;;;5.78;97.14
54369;BME280;40266;52.434;17.056;2023-03-20T06:56:00;100581.14;;;5.86;97.28
54369;BME280;40266;52.434;17.056;2023-03-20T06:58:44;100584.27;;;5.95;97.64
54369;BME280;40266;52.434;17.056;2023-03-20T07:01:28;100581.35;;;6.03;97.72
54369;BME280;40266;52.434;17.056;2023-03-20T07:04:11;100578.58;;;6.10;98.16
54369;BME280;40266;52.434;17.056;2023-03-20T07:07:00;100580.45;;;6.18;97.89
54369;BME280;40266;52.434;17.056;2023-03-20T07:09:43;100579.23;;;6.25;97.82
54369;BME280;40266;52.434;17.056;2023-03-20T07:12:27;100579.08;;;6.31;98.05
54369;BME280;40266;52.434;17.056;2023-03-20T07:15:13;100582.52;;;6.39;98.07
54369;BME280;40266;52.434;17.056;2023-03-20T07:17:56;100585.27;;;6.46;98.18
54369;BME280;40266;52.434;17.056;2023-03-20T07:20:41;100587.02;;;6.53;98.22
54369;BME280;40266;52.434;17.056;2023-03-20T07:23:24;100589.41;;;6.59;98.45
54369;BME280;40266;52.434;17.056;2023-03-20T07:26:07;100595.83;;;6.64;98.65
54369;BME280;40266;52.434;17.056;2023-03-20T07:28:51;100599.80;;;6.70;98.66
54369;BME280;40266;52.434;17.056;2023-03-20T07:31:36;100602.22;;;6.76;98.74
54369;BME280;40266;52.434;17.056;2023-03-20T07:34:26;100603.58;;;6.82;98.96
54369;BME280;40266;52.434;17.056;2023-03-20T07:37:10;100602.52;;;6.88;99.29
54369;BME280;40266;52.434;17.056;2023-03-20T07:40:00;100601.98;;;6.94;99.17
54369;BME280;40266;52.434;17.056;2023-03-20T07:42:48;100599.88;;;6.99;99.60
54369;BME280;40266;52.434;17.056;2023-03-20T07:45:51;100596.39;;;7.05;99.85
54369;BME280;40266;52.434;17.056;2023-03-20T07:48:35;100594.12;;;7.10;99.85
54369;BME280;40266;52.434;17.056;2023-03-20T07:51:18;100590.94;;;7.16;99.92
54369;BME280;40266;52.434;17.056;2023-03-20T07:54:01;100587.11;;;7.21;99.95
54369;BME280;40266;52.434;17.056;2023-03-20T07:56:45;100595.42;;;7.26;99.99
54369;BME280;40266;52.434;17.056;2023-03-20T07:59:28;100601.13;;;7.30;99.89
54369;BME280;40266;52.434;17.056;2023-03-20T08:02:15;100599.36;;;7.36;99.98
54369;BME280;40266;52.434;17.056;2023-03-20T08:04:58;100595.16;;;7.43;99.99
54369;BME280;40266;52.434;17.056;2023-03-20T08:07:41;100590.25;;;7.49;100.00
54369;BME280;40266;52.434;17.056;2023-03-20T08:10:25;100595.23;;;7.56;100.00
54369;BME280;40266;52.434;17.056;2023-03-20T08:13:08;100596.23;;;7.64;100.00
54369;BME280;40266;52.434;17.056;2023-03-20T08:15:51;100591.49;;;7.73;100.00
54369;BME280;40266;52.434;17.056;2023-03-20T08:18:34;100592.61;;;7.85;100.00
54369;BME280;40266;52.434;17.056;2023-03-20T08:21:18;100590.94;;;7.99;100.00
54369;BME280;40266;52.434;17.056;2023-03-20T08:24:01;100589.42;;;8.14;100.00
54369;BME280;40266;52.434;17.056;2023-03-20T08:26:44;100587.75;;;8.26;100.00
54369;BME280;40266;52.434;17.056;2023-03-20T08:29:28;100588.70;;;8.37;100.00
54369;BME280;40266;52.434;17.056;2023-03-20T08:32:11;100588.60;;;8.49;100.00
54369;BME280;40266;52.434;17.056;2023-03-20T08:34:54;100589.86;;;8.62;100.00
54369;BME280;40266;52.434;17.056;2023-03-20T08:37:37;100591.42;;;8.79;100.00
54369;BME280;40266;52.434;17.056;2023-03-20T08:40:20;100596.38;;;9.00;100.00
54369;BME280;40266;52.434;17.056;2023-03-20T08:43:03;100593.84;;;9.23;100.00
54369;BME280;40266;52.434;17.056;2023-03-20T08:45:47;100595.92;;;9.48;100.00
54369;BME280;40266;52.434;17.056;2023-03-20T08:48:30;100597.77;;;9.66;100.00
54369;BME280;40266;52.434;17.056;2023-03-20T08:51:13;100598.21;;;9.82;100.00
54369;BME280;40266;52.434;17.056;2023-03-20T08:53:57;100601.67;;;9.96;100.00
54369;BME280;40266;52.434;17.056;2023-03-20T08:56:40;100601.21;;;10.03;100.00
54369;BME280;40266;52.434;17.056;2023-03-20T08:59:24;100608.09;;;10.09;100.00
54369;BME280;40266;52.434;17.056;2023-03-20T09:02:09;100612.20;;;10.13;100.00
54369;BME280;40266;52.434;17.056;2023-03-20T09:04:53;100610.65;;;10.22;100.00
54369;BME280;40266;52.434;17.056;2023-03-20T09:07:36;100603.68;;;10.34;100.00
54369;BME280;40266;52.434;17.056;2023-03-20T09:10:19;100604.73;;;10.43;100.00
54369;BME280;40266;52.434;17.056;2023-03-20T09:13:03;100608.23;;;10.54;100.00
54369;BME280;40266;52.434;17.056;2023-03-20T09:16:07;100608.86;;;10.66;99.95
54369;BME280;40266;52.434;17.056;2023-03-20T09:18:50;100607.56;;;10.79;99.93
54369;BME280;40266;52.434;17.056;2023-03-20T09:21:33;100605.95;;;10.99;99.95
54369;BME280;40266;52.434;17.056;2023-03-20T09:24:16;100606.75;;;11.20;99.71
54369;BME280;40266;52.434;17.056;2023-03-20T09:26:59;100602.35;;;11.37;99.69
54369;BME280;40266;52.434;17.056;2023-03-20T09:29:45;100607.64;;;11.51;98.91
54369;BME280;40266;52.434;17.056;2023-03-20T09:32:28;100608.17;;;11.59;98.72
54369;BME280;40266;52.434;17.056;2023-03-20T09:35:11;100605.67;;;11.61;98.22
54369;BME280;40266;52.434;17.056;2023-03-20T09:37:54;100609.11;;;11.64;98.22
54369;BME280;40266;52.434;17.056;2023-03-20T09:40:59;100606.33;;;11.78;98.55
54369;BME280;40266;52.434;17.056;2023-03-20T09:44:14;100606.70;;;12.00;98.31
54369;BME280;40266;52.434;17.056;2023-03-20T09:50:35;100608.77;;;12.23;97.18
54369;BME280;40266;52.434;17.056;2023-03-20T09:53:33;100604.11;;;12.34;96.70
54369;BME280;40266;52.434;17.056;2023-03-20T09:56:24;100598.33;;;12.48;96.29
54369;BME280;40266;52.434;17.056;2023-03-20T09:59:13;100603.48;;;12.58;96.07
54369;BME280;40266;52.434;17.056;2023-03-20T10:02:13;100604.55;;;12.64;95.47
54369;BME280;40266;52.434;17.056;2023-03-20T10:04:58;100604.13;;;12.66;95.11
54369;BME280;40266;52.434;17.056;2023-03-20T10:07:42;100596.61;;;12.65;94.60
54369;BME280;40266;52.434;17.056;2023-03-20T10:17:38;100596.31;;;12.64;94.40
54369;BME280;40266;52.434;17.056;2023-03-20T10:19:56;100595.77;;;12.64;94.67
54369;BME280;40266;52.434;17.056;2023-03-20T10:22:52;100596.27;;;12.66;94.75
54369;BME280;40266;52.434;17.056;2023-03-20T10:25:58;100594.98;;;12.67;94.56
54369;BME280;40266;52.434;17.056;2023-03-20T10:28:51;100597.17;;;12.71;94.61
54369;BME280;40266;52.434;17.056;2023-03-20T10:40:28;100597.09;;;12.99;93.96
54369;BME280;40266;52.434;17.056;2023-03-20T10:43:30;100591.18;;;13.09;93.95
54369;BME280;40266;52.434;17.056;2023-03-20T10:46:23;100588.12;;;13.24;93.92
54369;BME280;40266;52.434;17.056;2023-03-20T10:49:41;100588.40;;;13.40;93.51
54369;BME280;40266;52.434;17.056;2023-03-20T10:52:27;100594.02;;;13.62;93.58
54369;BME280;40266;52.434;17.056;2023-03-20T10:55:27;100585.58;;;13.79;93.14
54369;BME280;40266;52.434;17.056;2023-03-20T10:58:18;100586.98;;;13.95;92.75
54369;BME280;40266;52.434;17.056;2023-03-20T11:01:04;100582.77;;;14.11;92.44
54369;BME280;40266;52.434;17.056;2023-03-20T11:03:47;100580.31;;;14.27;91.73
54369;BME280;40266;52.434;17.056;2023-03-20T11:06:33;100579.94;;;14.38;91.08
54369;BME280;40266;52.434;17.056;2023-03-20T11:09:23;100578.95;;;14.51;90.74
54369;BME280;40266;52.434;17.056;2023-03-20T11:12:16;100573.10;;;14.59;90.12
54369;BME280;40266;52.434;17.056;2023-03-20T11:18:05;100572.52;;;14.70;88.83
54369;BME280;40266;52.434;17.056;2023-03-20T11:20:56;100570.39;;;14.75;88.73
54369;BME280;40266;52.434;17.056;2023-03-20T11:23:40;100571.64;;;14.84;87.83
54369;BME280;40266;52.434;17.056;2023-03-20T11:26:38;100576.61;;;14.92;87.88
54369;BME280;40266;52.434;17.056;2023-03-20T11:29:28;100575.53;;;15.03;87.25
54369;BME280;40266;52.434;17.056;2023-03-20T11:38:19;100571.25;;;15.27;85.71
54369;BME280;40266;52.434;17.056;2023-03-20T11:41:03;100567.76;;;15.31;84.31
54369;BME280;40266;52.434;17.056;2023-03-20T11:43:47;100566.52;;;15.41;84.02
54369;BME280;40266;52.434;17.056;2023-03-20T11:46:30;100572.02;;;15.53;83.38
54369;BME280;40266;52.434;17.056;2023-03-20T11:49:22;100568.86;;;15.57;82.83
54369;BME280;40266;52.434;17.056;2023-03-20T11:52:12;100573.60;;;15.53;81.54
54369;BME280;40266;52.434;17.056;2023-03-20T11:54:57;100571.14;;;15.48;80.80
54369;BME280;40266;52.434;17.056;2023-03-20T11:57:41;100574.71;;;15.47;80.42
54369;BME280;40266;52.434;17.056;2023-03-20T12:00:38;100572.70;;;15.45;80.01
54369;BME280;40266;52.434;17.056;2023-03-20T12:06:27;100567.98;;;15.49;79.11
54369;BME280;40266;52.434;17.056;2023-03-20T12:09:31;100563.98;;;15.52;78.83
54369;BME280;40266;52.434;17.056;2023-03-20T12:12:23;100559.63;;;15.50;78.48
54369;BME280;40266;52.434;17.056;2023-03-20T12:15:24;100561.05;;;15.49;77.88
54369;BME280;40266;52.434;17.056;2023-03-20T12:21:29;100557.02;;;15.45;76.69
54369;BME280;40266;52.434;17.056;2023-03-20T12:24:26;100561.66;;;15.38;76.54
54369;BME280;40266;52.434;17.056;2023-03-20T12:30:13;100551.58;;;15.22;76.44
54369;BME280;40266;52.434;17.056;2023-03-20T12:33:20;100551.63;;;15.12;75.98
54369;BME280;40266;52.434;17.056;2023-03-20T12:36:14;100544.77;;;15.07;76.04
54369;BME280;40266;52.434;17.056;2023-03-20T12:39:01;100541.79;;;15.12;75.95
54369;BME280;40266;52.434;17.056;2023-03-20T12:42:01;100531.58;;;15.07;75.74
54369;BME280;40266;52.434;17.056;2023-03-20T13:05:18;100521.89;;;14.60;74.67
54369;BME280;40266;52.434;17.056;2023-03-20T13:08:31;100518.98;;;14.59;74.06
54369;BME280;40266;52.434;17.056;2023-03-20T13:20:43;100505.97;;;14.72;74.02
54369;BME280;40266;52.434;17.056;2023-03-20T13:24:06;100502.30;;;14.76;73.65
54369;BME280;40266;52.434;17.056;2023-03-20T13:29:59;100495.31;;;14.85;73.76
54369;BME280;40266;52.434;17.056;2023-03-20T13:33:01;100494.02;;;14.86;73.43
54369;BME280;40266;52.434;17.056;2023-03-20T13:39:18;100492.88;;;14.75;72.12
54369;BME280;40266;52.434;17.056;2023-03-20T13:42:07;100492.28;;;14.67;71.43
54369;BME280;40266;52.434;17.056;2023-03-20T13:44:55;100489.09;;;14.58;71.31
54369;BME280;40266;52.434;17.056;2023-03-20T13:47:44;100484.59;;;14.51;71.30
54369;BME280;40266;52.434;17.056;2023-03-20T13:56:56;100477.77;;;14.50;71.82
54369;BME280;40266;52.434;17.056;2023-03-20T14:03:04;100481.39;;;14.67;72.02
54369;BME280;40266;52.434;17.056;2023-03-20T14:05:49;100483.02;;;14.75;71.54
54369;BME280;40266;52.434;17.056;2023-03-20T14:08:34;100481.98;;;14.80;71.31
54369;BME280;40266;52.434;17.056;2023-03-20T14:14:39;100479.45;;;14.86;70.08
54369;BME280;40266;52.434;17.056;2023-03-20T14:17:25;100477.45;;;14.87;69.63
54369;BME280;40266;52.434;17.056;2023-03-20T14:20:18;100478.82;;;14.88;69.49
54369;BME280;40266;52.434;17.056;2023-03-20T14:23:03;100477.52;;;14.90;69.18
54369;BME280;40266;52.434;17.056;2023-03-20T14:25:47;100480.25;;;14.83;68.52
54369;BME280;40266;52.434;17.056;2023-03-20T14:28:44;100484.56;;;14.76;68.45
54369;BME280;40266;52.434;17.056;2023-03-20T14:31:34;100484.73;;;14.67;68.64
54369;BME280;40266;52.434;17.056;2023-03-20T14:34:22;100482.27;;;14.62;68.84
54369;BME280;40266;52.434;17.056;2023-03-20T14:37:36;100483.70;;;14.52;68.89
54369;BME280;40266;52.434;17.056;2023-03-20T14:40:20;100485.24;;;14.43;69.50
54369;BME280;40266;52.434;17.056;2023-03-20T14:43:15;100485.78;;;14.38;69.83
54369;BME280;40266;52.434;17.056;2023-03-20T14:46:39;100485.98;;;14.32;70.09
54369;BME280;40266;52.434;17.056;2023-03-20T14:49:50;100486.15;;;14.27;70.63
54369;BME280;40266;52.434;17.056;2023-03-20T14:58:41;100481.02;;;14.08;71.13
54369;BME280;40266;52.434;17.056;2023-03-20T15:04:38;100489.55;;;13.90;71.35
54369;BME280;40266;52.434;17.056;2023-03-20T15:07:23;100490.91;;;13.81;71.67
54369;BME280;40266;52.434;17.056;2023-03-20T15:10:07;100491.24;;;13.71;71.79
54369;BME280;40266;52.434;17.056;2023-03-20T15:12:51;100494.61;;;13.59;71.94
54369;BME280;40266;52.434;17.056;2023-03-20T15:15:34;100499.30;;;13.50;72.27
54369;BME280;40266;52.434;17.056;2023-03-20T15:18:19;100498.89;;;13.41;72.55
54369;BME280;40266;52.434;17.056;2023-03-20T15:21:11;100502.02;;;13.31;73.06
54369;BME280;40266;52.434;17.056;2023-03-20T15:23:54;100502.77;;;13.23;73.62
54369;BME280;40266;52.434;17.056;2023-03-20T15:26:39;100507.89;;;13.15;73.84
54369;BME280;40266;52.434;17.056;2023-03-20T15:29:22;100510.23;;;13.08;74.32
54369;BME280;40266;52.434;17.056;2023-03-20T15:32:06;100510.23;;;13.02;74.54
54369;BME280;40266;52.434;17.056;2023-03-20T15:34:56;100511.91;;;12.93;74.72
54369;BME280;40266;52.434;17.056;2023-03-20T15:37:42;100511.69;;;12.82;74.85
54369;BME280;40266;52.434;17.056;2023-03-20T15:40:29;100517.14;;;12.69;74.77
54369;BME280;40266;52.434;17.056;2023-03-20T15:43:32;100521.58;;;12.55;75.02
54369;BME280;40266;52.434;17.056;2023-03-20T15:46:17;100524.27;;;12.46;75.28
54369;BME280;40266;52.434;17.056;2023-03-20T15:49:03;100533.85;;;12.36;75.15
54369;BME280;40266;52.434;17.056;2023-03-20T15:51:47;100537.96;;;12.26;74.87
54369;BME280;40266;52.434;17.056;2023-03-20T15:54:35;100540.69;;;12.15;74.62
54369;BME280;40266;52.434;17.056;2023-03-20T15:57:24;100541.13;;;12.05;74.67
54369;BME280;40266;52.434;17.056;2023-03-20T16:00:14;100545.08;;;11.94;74.26
54369;BME280;40266;52.434;17.056;2023-03-20T16:03:05;100547.25;;;11.82;74.46
54369;BME280;40266;52.434;17.056;2023-03-20T16:05:50;100553.12;;;11.72;74.30
54369;BME280;40266;52.434;17.056;2023-03-20T16:08:34;100552.33;;;11.60;74.45
54369;BME280;40266;52.434;17.056;2023-03-20T16:11:17;100551.30;;;11.52;74.63
54369;BME280;40266;52.434;17.056;2023-03-20T16:14:01;100558.31;;;11.44;74.67
54369;BME280;40266;52.434;17.056;2023-03-20T16:16:48;100559.05;;;11.35;74.93
54369;BME280;40266;52.434;17.056;2023-03-20T16:19:34;100564.19;;;11.24;75.05
54369;BME280;40266;52.434;17.056;2023-03-20T16:22:27;100561.75;;;11.15;75.11
54369;BME280;40266;52.434;17.056;2023-03-20T16:25:15;100562.98;;;11.06;75.37
54369;BME280;40266;52.434;17.056;2023-03-20T16:28:04;100560.52;;;10.99;75.37
54369;BME280;40266;52.434;17.056;2023-03-20T16:31:25;100567.28;;;10.93;75.52
54369;BME280;40266;52.434;17.056;2023-03-20T16:34:10;100569.69;;;10.86;75.78
54369;BME280;40266;52.434;17.056;2023-03-20T16:36:59;100565.64;;;10.80;76.02
54369;BME280;40266;52.434;17.056;2023-03-20T16:39:43;100565.77;;;10.73;76.19
54369;BME280;40266;52.434;17.056;2023-03-20T16:42:27;100564.55;;;10.64;76.23
54369;BME280;40266;52.434;17.056;2023-03-20T16:45:20;100563.98;;;10.56;76.45
54369;BME280;40266;52.434;17.056;2023-03-20T16:48:21;100566.05;;;10.49;76.64
54369;BME280;40266;52.434;17.056;2023-03-20T16:51:21;100565.46;;;10.43;76.88
54369;BME280;40266;52.434;17.056;2023-03-20T16:54:18;100566.95;;;10.38;77.17
54369;BME280;40266;52.434;17.056;2023-03-20T16:57:07;100565.35;;;10.30;77.26
54369;BME280;40266;52.434;17.056;2023-03-20T16:59:51;100569.59;;;10.25;77.51
54369;BME280;40266;52.434;17.056;2023-03-20T17:02:39;100574.08;;;10.18;77.75